Kneece, South Carolina
Current Conditions -  °F | °C
As of 3:15 PM on Friday 19 Dec 2014 (Local Time) from KAIK Reporting Station
Clear Clear  
Wind Chill: 61°   Ceiling: Unl
Heat Index: 61°   Visibility: 10mi
Dew Point: 39°   Wind: 3mph
Humidity: 45%   Direction: 60°ENE
Pressure: 30.1"   Gusts: NA
Location:  33.9549°N, 81.564°W
Report Text: KAIK 192015Z AUTO 06003KT 10SM CLR 16/04 A3010 RMK AO2 PNO
Loading
Personal Weather Stations






























Interactive Weather Map New forecast layout! Learn more

10-Day Weather Forecast

Advertisements
Track Severe Weather on mobile